sensor_id;sensor_type;location;lat;lon;timestamp;P1;durP1;ratioP1;P2;durP2;ratioP2
78891;SDS011;68280;51.728;5.248;2023-03-01T00:01:13;2.00;;;1.40;;
78891;SDS011;68280;51.728;5.248;2023-03-01T00:03:43;2.60;;;1.60;;
78891;SDS011;68280;51.728;5.248;2023-03-01T00:06:12;3.40;;;2.00;;
78891;SDS011;68280;51.728;5.248;2023-03-01T00:08:40;2.60;;;1.70;;
78891;SDS011;68280;51.728;5.248;2023-03-01T00:11:10;2.90;;;2.00;;
78891;SDS011;68280;51.728;5.248;2023-03-01T00:13:40;3.10;;;1.90;;
78891;SDS011;68280;51.728;5.248;2023-03-01T00:16:10;3.40;;;1.70;;
78891;SDS011;68280;51.728;5.248;2023-03-01T00:18:39;2.50;;;1.70;;
78891;SDS011;68280;51.728;5.248;2023-03-01T00:21:08;2.50;;;1.90;;
78891;SDS011;68280;51.728;5.248;2023-03-01T00:26:07;2.40;;;1.60;;
78891;SDS011;68280;51.728;5.248;2023-03-01T00:28:36;2.10;;;1.50;;
78891;SDS011;68280;51.728;5.248;2023-03-01T00:31:05;3.80;;;1.80;;
78891;SDS011;68280;51.728;5.248;2023-03-01T00:33:35;2.80;;;1.60;;
78891;SDS011;68280;51.728;5.248;2023-03-01T00:36:04;2.60;;;1.80;;
78891;SDS011;68280;51.728;5.248;2023-03-01T00:38:35;2.50;;;1.50;;
78891;SDS011;68280;51.728;5.248;2023-03-01T00:41:05;3.00;;;1.90;;
78891;SDS011;68280;51.728;5.248;2023-03-01T00:43:35;2.90;;;1.70;;
78891;SDS011;68280;51.728;5.248;2023-03-01T00:46:04;2.80;;;1.60;;
78891;SDS011;68280;51.728;5.248;2023-03-01T00:48:34;2.80;;;1.90;;
78891;SDS011;68280;51.728;5.248;2023-03-01T00:51:07;2.60;;;1.70;;
78891;SDS011;68280;51.728;5.248;2023-03-01T00:53:37;2.30;;;1.70;;
78891;SDS011;68280;51.728;5.248;2023-03-01T00:56:07;2.20;;;1.60;;
78891;SDS011;68280;51.728;5.248;2023-03-01T00:58:36;2.70;;;1.70;;
78891;SDS011;68280;51.728;5.248;2023-03-01T01:01:08;3.80;;;2.20;;
78891;SDS011;68280;51.728;5.248;2023-03-01T01:03:38;3.20;;;1.80;;
78891;SDS011;68280;51.728;5.248;2023-03-01T01:06:06;2.30;;;1.60;;
78891;SDS011;68280;51.728;5.248;2023-03-01T01:08:41;2.70;;;1.80;;
78891;SDS011;68280;51.728;5.248;2023-03-01T01:11:11;2.60;;;1.80;;
78891;SDS011;68280;51.728;5.248;2023-03-01T01:13:40;2.20;;;1.50;;
78891;SDS011;68280;51.728;5.248;2023-03-01T01:16:10;2.20;;;1.60;;
78891;SDS011;68280;51.728;5.248;2023-03-01T01:18:39;3.70;;;1.80;;
78891;SDS011;68280;51.728;5.248;2023-03-01T01:21:08;2.80;;;1.70;;
78891;SDS011;68280;51.728;5.248;2023-03-01T01:23:38;2.40;;;1.70;;
78891;SDS011;68280;51.728;5.248;2023-03-01T01:26:08;3.50;;;1.80;;
78891;SDS011;68280;51.728;5.248;2023-03-01T01:28:37;2.50;;;1.80;;
78891;SDS011;68280;51.728;5.248;2023-03-01T01:31:06;2.40;;;1.50;;
78891;SDS011;68280;51.728;5.248;2023-03-01T01:33:34;2.60;;;1.90;;
78891;SDS011;68280;51.728;5.248;2023-03-01T01:36:03;2.90;;;1.80;;
78891;SDS011;68280;51.728;5.248;2023-03-01T01:38:33;2.40;;;1.60;;
78891;SDS011;68280;51.728;5.248;2023-03-01T01:41:02;3.50;;;2.00;;
78891;SDS011;68280;51.728;5.248;2023-03-01T01:43:32;2.30;;;1.60;;
78891;SDS011;68280;51.728;5.248;2023-03-01T01:46:03;2.80;;;1.60;;
78891;SDS011;68280;51.728;5.248;2023-03-01T01:48:39;2.40;;;1.70;;
78891;SDS011;68280;51.728;5.248;2023-03-01T01:51:13;2.90;;;1.80;;
78891;SDS011;68280;51.728;5.248;2023-03-01T01:53:45;2.50;;;1.70;;
78891;SDS011;68280;51.728;5.248;2023-03-01T01:56:17;2.50;;;1.80;;
78891;SDS011;68280;51.728;5.248;2023-03-01T01:58:48;2.50;;;1.70;;
78891;SDS011;68280;51.728;5.248;2023-03-01T02:01:17;2.20;;;1.70;;
78891;SDS011;68280;51.728;5.248;2023-03-01T02:03:46;2.30;;;1.60;;
78891;SDS011;68280;51.728;5.248;2023-03-01T02:06:15;3.40;;;1.60;;
78891;SDS011;68280;51.728;5.248;2023-03-01T02:08:48;2.40;;;1.70;;
78891;SDS011;68280;51.728;5.248;2023-03-01T02:11:19;2.00;;;1.70;;
78891;SDS011;68280;51.728;5.248;2023-03-01T02:13:48;2.60;;;1.90;;
78891;SDS011;68280;51.728;5.248;2023-03-01T02:16:18;3.10;;;1.50;;
78891;SDS011;68280;51.728;5.248;2023-03-01T02:18:46;2.10;;;1.50;;
78891;SDS011;68280;51.728;5.248;2023-03-01T02:21:20;2.30;;;1.60;;
78891;SDS011;68280;51.728;5.248;2023-03-01T02:23:57;3.00;;;1.80;;
78891;SDS011;68280;51.728;5.248;2023-03-01T02:26:33;2.60;;;1.60;;
78891;SDS011;68280;51.728;5.248;2023-03-01T02:29:07;2.00;;;1.40;;
78891;SDS011;68280;51.728;5.248;2023-03-01T02:31:36;2.30;;;1.70;;
78891;SDS011;68280;51.728;5.248;2023-03-01T02:34:04;2.00;;;1.50;;
78891;SDS011;68280;51.728;5.248;2023-03-01T02:36:34;1.90;;;1.50;;
78891;SDS011;68280;51.728;5.248;2023-03-01T02:39:05;2.70;;;1.70;;
78891;SDS011;68280;51.728;5.248;2023-03-01T02:41:37;2.60;;;1.60;;
78891;SDS011;68280;51.728;5.248;2023-03-01T02:44:07;3.10;;;1.70;;
78891;SDS011;68280;51.728;5.248;2023-03-01T02:46:41;3.00;;;1.60;;
78891;SDS011;68280;51.728;5.248;2023-03-01T02:49:18;2.10;;;1.60;;
78891;SDS011;68280;51.728;5.248;2023-03-01T02:51:52;2.40;;;1.80;;
78891;SDS011;68280;51.728;5.248;2023-03-01T02:54:41;1.90;;;1.50;;
78891;SDS011;68280;51.728;5.248;2023-03-01T02:57:13;2.50;;;1.90;;
78891;SDS011;68280;51.728;5.248;2023-03-01T02:59:42;2.70;;;1.60;;
78891;SDS011;68280;51.728;5.248;2023-03-01T03:02:19;2.50;;;1.80;;
78891;SDS011;68280;51.728;5.248;2023-03-01T03:04:49;2.40;;;1.60;;
78891;SDS011;68280;51.728;5.248;2023-03-01T03:07:17;3.10;;;1.50;;
78891;SDS011;68280;51.728;5.248;2023-03-01T03:09:45;3.10;;;1.60;;
78891;SDS011;68280;51.728;5.248;2023-03-01T03:12:13;2.20;;;1.50;;
78891;SDS011;68280;51.728;5.248;2023-03-01T03:14:42;2.50;;;1.80;;
78891;SDS011;68280;51.728;5.248;2023-03-01T03:17:10;2.20;;;1.50;;
78891;SDS011;68280;51.728;5.248;2023-03-01T03:19:38;2.00;;;1.30;;
78891;SDS011;68280;51.728;5.248;2023-03-01T03:22:06;3.30;;;1.40;;
78891;SDS011;68280;51.728;5.248;2023-03-01T03:24:34;2.40;;;1.60;;
78891;SDS011;68280;51.728;5.248;2023-03-01T03:27:03;1.70;;;1.50;;
78891;SDS011;68280;51.728;5.248;2023-03-01T03:34:22;3.00;;;1.80;;
78891;SDS011;68280;51.728;5.248;2023-03-01T03:36:53;2.10;;;1.50;;
78891;SDS011;68280;51.728;5.248;2023-03-01T03:39:22;2.40;;;1.60;;
78891;SDS011;68280;51.728;5.248;2023-03-01T03:41:51;2.80;;;1.60;;
78891;SDS011;68280;51.728;5.248;2023-03-01T03:44:19;3.30;;;1.70;;
78891;SDS011;68280;51.728;5.248;2023-03-01T03:46:47;3.10;;;1.80;;
78891;SDS011;68280;51.728;5.248;2023-03-01T03:49:16;2.90;;;1.60;;
78891;SDS011;68280;51.728;5.248;2023-03-01T03:51:46;2.40;;;1.60;;
78891;SDS011;68280;51.728;5.248;2023-03-01T03:54:14;2.80;;;1.70;;
78891;SDS011;68280;51.728;5.248;2023-03-01T03:56:42;2.70;;;1.80;;
78891;SDS011;68280;51.728;5.248;2023-03-01T03:59:11;2.80;;;1.70;;
78891;SDS011;68280;51.728;5.248;2023-03-01T04:01:39;2.30;;;1.60;;
78891;SDS011;68280;51.728;5.248;2023-03-01T04:04:07;3.30;;;1.70;;
78891;SDS011;68280;51.728;5.248;2023-03-01T04:06:35;2.20;;;1.60;;
78891;SDS011;68280;51.728;5.248;2023-03-01T04:09:03;2.40;;;1.60;;
78891;SDS011;68280;51.728;5.248;2023-03-01T04:11:32;2.20;;;1.40;;
78891;SDS011;68280;51.728;5.248;2023-03-01T04:14:00;2.40;;;1.40;;
78891;SDS011;68280;51.728;5.248;2023-03-01T04:16:28;2.60;;;1.90;;
78891;SDS011;68280;51.728;5.248;2023-03-01T04:18:56;2.00;;;1.50;;
78891;SDS011;68280;51.728;5.248;2023-03-01T04:21:25;1.70;;;1.40;;
78891;SDS011;68280;51.728;5.248;2023-03-01T04:23:53;2.20;;;1.50;;
78891;SDS011;68280;51.728;5.248;2023-03-01T04:26:21;2.60;;;1.50;;
78891;SDS011;68280;51.728;5.248;2023-03-01T04:28:50;3.70;;;1.50;;
78891;SDS011;68280;51.728;5.248;2023-03-01T04:31:18;2.00;;;1.40;;
78891;SDS011;68280;51.728;5.248;2023-03-01T04:33:47;3.30;;;1.80;;
78891;SDS011;68280;51.728;5.248;2023-03-01T04:36:18;2.10;;;1.50;;
78891;SDS011;68280;51.728;5.248;2023-03-01T04:38:47;1.90;;;1.70;;
78891;SDS011;68280;51.728;5.248;2023-03-01T04:41:16;2.40;;;1.50;;
78891;SDS011;68280;51.728;5.248;2023-03-01T04:43:46;3.50;;;1.40;;
78891;SDS011;68280;51.728;5.248;2023-03-01T04:46:15;2.10;;;1.50;;
78891;SDS011;68280;51.728;5.248;2023-03-01T04:48:45;2.30;;;1.50;;
78891;SDS011;68280;51.728;5.248;2023-03-01T04:51:14;2.20;;;1.20;;
78891;SDS011;68280;51.728;5.248;2023-03-01T04:53:43;2.40;;;1.50;;
78891;SDS011;68280;51.728;5.248;2023-03-01T04:56:11;2.70;;;1.50;;
78891;SDS011;68280;51.728;5.248;2023-03-01T04:58:40;2.40;;;1.60;;
78891;SDS011;68280;51.728;5.248;2023-03-01T05:01:09;2.70;;;1.60;;
78891;SDS011;68280;51.728;5.248;2023-03-01T05:03:38;2.40;;;1.50;;
78891;SDS011;68280;51.728;5.248;2023-03-01T05:06:06;2.10;;;1.50;;
78891;SDS011;68280;51.728;5.248;2023-03-01T05:08:35;2.20;;;1.50;;
78891;SDS011;68280;51.728;5.248;2023-03-01T05:11:03;2.40;;;1.60;;
78891;SDS011;68280;51.728;5.248;2023-03-01T05:13:32;2.00;;;1.50;;
78891;SDS011;68280;51.728;5.248;2023-03-01T05:16:01;2.40;;;1.50;;
78891;SDS011;68280;51.728;5.248;2023-03-01T05:18:31;2.20;;;1.50;;
78891;SDS011;68280;51.728;5.248;2023-03-01T05:21:03;2.30;;;1.70;;
78891;SDS011;68280;51.728;5.248;2023-03-01T05:23:33;1.70;;;1.30;;
78891;SDS011;68280;51.728;5.248;2023-03-01T05:26:02;2.20;;;1.40;;
78891;SDS011;68280;51.728;5.248;2023-03-01T05:28:31;1.70;;;1.30;;
78891;SDS011;68280;51.728;5.248;2023-03-01T05:31:00;2.00;;;1.50;;
78891;SDS011;68280;51.728;5.248;2023-03-01T05:33:28;1.80;;;1.50;;
78891;SDS011;68280;51.728;5.248;2023-03-01T05:35:59;1.80;;;1.20;;
78891;SDS011;68280;51.728;5.248;2023-03-01T05:38:28;2.00;;;1.50;;
78891;SDS011;68280;51.728;5.248;2023-03-01T05:40:56;2.40;;;1.90;;
78891;SDS011;68280;51.728;5.248;2023-03-01T05:43:24;2.60;;;1.30;;
78891;SDS011;68280;51.728;5.248;2023-03-01T05:45:57;2.00;;;1.50;;
78891;SDS011;68280;51.728;5.248;2023-03-01T05:48:25;2.40;;;1.90;;
78891;SDS011;68280;51.728;5.248;2023-03-01T05:50:54;1.80;;;1.30;;
78891;SDS011;68280;51.728;5.248;2023-03-01T05:53:26;2.50;;;1.50;;
78891;SDS011;68280;51.728;5.248;2023-03-01T05:55:55;2.20;;;1.60;;
78891;SDS011;68280;51.728;5.248;2023-03-01T05:58:23;2.00;;;1.40;;
78891;SDS011;68280;51.728;5.248;2023-03-01T06:00:52;2.70;;;1.40;;
78891;SDS011;68280;51.728;5.248;2023-03-01T06:03:20;2.00;;;1.30;;
78891;SDS011;68280;51.728;5.248;2023-03-01T06:05:48;2.00;;;1.50;;
78891;SDS011;68280;51.728;5.248;2023-03-01T06:08:21;1.50;;;1.10;;
78891;SDS011;68280;51.728;5.248;2023-03-01T06:10:50;2.30;;;1.50;;
78891;SDS011;68280;51.728;5.248;2023-03-01T06:13:18;2.40;;;1.30;;
78891;SDS011;68280;51.728;5.248;2023-03-01T06:15:47;2.20;;;1.50;;
78891;SDS011;68280;51.728;5.248;2023-03-01T06:18:15;1.90;;;1.40;;
78891;SDS011;68280;51.728;5.248;2023-03-01T06:20:43;2.10;;;1.30;;
78891;SDS011;68280;51.728;5.248;2023-03-01T06:23:18;2.00;;;1.40;;
78891;SDS011;68280;51.728;5.248;2023-03-01T06:25:46;3.10;;;1.50;;
78891;SDS011;68280;51.728;5.248;2023-03-01T06:28:15;2.00;;;1.40;;
78891;SDS011;68280;51.728;5.248;2023-03-01T06:30:43;2.60;;;1.20;;
78891;SDS011;68280;51.728;5.248;2023-03-01T06:33:11;1.90;;;1.20;;
78891;SDS011;68280;51.728;5.248;2023-03-01T06:35:39;2.40;;;1.40;;
78891;SDS011;68280;51.728;5.248;2023-03-01T06:38:08;2.50;;;1.50;;
78891;SDS011;68280;51.728;5.248;2023-03-01T06:40:36;2.20;;;1.20;;
78891;SDS011;68280;51.728;5.248;2023-03-01T06:43:04;2.30;;;1.30;;
78891;SDS011;68280;51.728;5.248;2023-03-01T06:45:33;3.00;;;1.20;;
78891;SDS011;68280;51.728;5.248;2023-03-01T06:48:03;4.70;;;1.30;;
78891;SDS011;68280;51.728;5.248;2023-03-01T06:50:32;2.20;;;1.40;;
78891;SDS011;68280;51.728;5.248;2023-03-01T06:53:01;2.00;;;1.20;;
78891;SDS011;68280;51.728;5.248;2023-03-01T06:55:30;3.20;;;1.50;;
78891;SDS011;68280;51.728;5.248;2023-03-01T06:57:59;2.00;;;1.30;;
78891;SDS011;68280;51.728;5.248;2023-03-01T07:00:28;3.00;;;1.50;;
78891;SDS011;68280;51.728;5.248;2023-03-01T07:02:59;2.10;;;1.10;;
78891;SDS011;68280;51.728;5.248;2023-03-01T07:05:28;2.40;;;1.30;;
78891;SDS011;68280;51.728;5.248;2023-03-01T07:07:57;2.10;;;1.30;;
78891;SDS011;68280;51.728;5.248;2023-03-01T07:10:25;2.40;;;1.30;;
78891;SDS011;68280;51.728;5.248;2023-03-01T07:12:55;2.80;;;1.30;;
78891;SDS011;68280;51.728;5.248;2023-03-01T07:15:24;3.00;;;1.20;;
78891;SDS011;68280;51.728;5.248;2023-03-01T07:17:53;2.70;;;1.30;;
78891;SDS011;68280;51.728;5.248;2023-03-01T07:20:22;2.60;;;1.30;;
78891;SDS011;68280;51.728;5.248;2023-03-01T07:22:50;3.20;;;1.20;;
78891;SDS011;68280;51.728;5.248;2023-03-01T07:25:18;2.10;;;1.20;;
78891;SDS011;68280;51.728;5.248;2023-03-01T07:27:50;2.70;;;1.20;;
78891;SDS011;68280;51.728;5.248;2023-03-01T07:30:19;2.10;;;1.30;;
78891;SDS011;68280;51.728;5.248;2023-03-01T07:32:47;2.10;;;1.30;;
78891;SDS011;68280;51.728;5.248;2023-03-01T07:35:16;3.70;;;1.60;;
78891;SDS011;68280;51.728;5.248;2023-03-01T07:37:44;2.90;;;1.20;;
78891;SDS011;68280;51.728;5.248;2023-03-01T07:40:13;2.20;;;1.40;;
78891;SDS011;68280;51.728;5.248;2023-03-01T07:42:41;1.70;;;1.10;;
78891;SDS011;68280;51.728;5.248;2023-03-01T07:45:10;2.30;;;1.40;;
78891;SDS011;68280;51.728;5.248;2023-03-01T07:47:39;6.30;;;1.30;;
78891;SDS011;68280;51.728;5.248;2023-03-01T07:50:08;2.40;;;1.10;;
78891;SDS011;68280;51.728;5.248;2023-03-01T07:52:37;3.80;;;1.50;;
78891;SDS011;68280;51.728;5.248;2023-03-01T07:55:06;1.90;;;1.20;;
78891;SDS011;68280;51.728;5.248;2023-03-01T07:57:39;3.00;;;1.00;;
78891;SDS011;68280;51.728;5.248;2023-03-01T08:00:10;2.90;;;1.20;;
78891;SDS011;68280;51.728;5.248;2023-03-01T08:02:39;2.30;;;1.20;;
78891;SDS011;68280;51.728;5.248;2023-03-01T08:05:08;2.00;;;1.10;;
78891;SDS011;68280;51.728;5.248;2023-03-01T08:07:36;3.30;;;1.20;;
78891;SDS011;68280;51.728;5.248;2023-03-01T08:10:05;2.70;;;1.20;;
78891;SDS011;68280;51.728;5.248;2023-03-01T08:12:34;2.20;;;1.20;;
78891;SDS011;68280;51.728;5.248;2023-03-01T08:15:03;1.90;;;1.10;;
78891;SDS011;68280;51.728;5.248;2023-03-01T08:17:32;2.00;;;1.20;;
78891;SDS011;68280;51.728;5.248;2023-03-01T08:20:00;2.20;;;1.00;;
78891;SDS011;68280;51.728;5.248;2023-03-01T08:22:29;1.70;;;1.00;;
78891;SDS011;68280;51.728;5.248;2023-03-01T08:24:57;1.80;;;1.00;;
78891;SDS011;68280;51.728;5.248;2023-03-01T08:27:26;1.40;;;1.20;;
78891;SDS011;68280;51.728;5.248;2023-03-01T08:29:54;1.70;;;1.20;;
78891;SDS011;68280;51.728;5.248;2023-03-01T08:32:22;1.80;;;1.30;;
78891;SDS011;68280;51.728;5.248;2023-03-01T08:34:53;3.10;;;1.50;;
78891;SDS011;68280;51.728;5.248;2023-03-01T08:37:21;2.30;;;1.30;;
78891;SDS011;68280;51.728;5.248;2023-03-01T08:39:49;1.60;;;1.20;;
78891;SDS011;68280;51.728;5.248;2023-03-01T08:42:18;3.50;;;1.80;;
78891;SDS011;68280;51.728;5.248;2023-03-01T08:44:46;2.00;;;1.00;;
78891;SDS011;68280;51.728;5.248;2023-03-01T08:47:15;1.70;;;1.10;;
78891;SDS011;68280;51.728;5.248;2023-03-01T08:49:43;2.70;;;0.90;;
78891;SDS011;68280;51.728;5.248;2023-03-01T08:52:11;1.70;;;1.10;;
78891;SDS011;68280;51.728;5.248;2023-03-01T08:54:39;1.70;;;1.10;;
78891;SDS011;68280;51.728;5.248;2023-03-01T08:57:07;2.10;;;1.10;;
78891;SDS011;68280;51.728;5.248;2023-03-01T08:59:36;2.50;;;1.10;;
78891;SDS011;68280;51.728;5.248;2023-03-01T09:02:04;2.10;;;1.30;;
78891;SDS011;68280;51.728;5.248;2023-03-01T09:04:37;2.20;;;1.10;;
78891;SDS011;68280;51.728;5.248;2023-03-01T09:07:06;1.80;;;1.10;;
78891;SDS011;68280;51.728;5.248;2023-03-01T09:09:35;2.60;;;1.30;;
78891;SDS011;68280;51.728;5.248;2023-03-01T09:12:04;1.30;;;0.90;;
78891;SDS011;68280;51.728;5.248;2023-03-01T09:14:32;2.20;;;1.20;;
78891;SDS011;68280;51.728;5.248;2023-03-01T09:17:01;1.50;;;1.00;;
78891;SDS011;68280;51.728;5.248;2023-03-01T09:19:29;1.60;;;1.00;;
78891;SDS011;68280;51.728;5.248;2023-03-01T09:21:57;1.40;;;1.00;;
78891;SDS011;68280;51.728;5.248;2023-03-01T09:24:26;1.70;;;1.00;;
78891;SDS011;68280;51.728;5.248;2023-03-01T09:26:54;2.70;;;1.20;;
78891;SDS011;68280;51.728;5.248;2023-03-01T09:29:23;3.20;;;1.00;;
78891;SDS011;68280;51.728;5.248;2023-03-01T09:31:52;3.00;;;1.30;;
78891;SDS011;68280;51.728;5.248;2023-03-01T09:42:01;2.50;;;1.20;;
78891;SDS011;68280;51.728;5.248;2023-03-01T09:44:32;1.30;;;0.80;;
78891;SDS011;68280;51.728;5.248;2023-03-01T09:47:10;1.80;;;1.10;;
78891;SDS011;68280;51.728;5.248;2023-03-01T09:49:43;1.80;;;1.10;;
78891;SDS011;68280;51.728;5.248;2023-03-01T09:52:23;2.00;;;0.90;;
78891;SDS011;68280;51.728;5.248;2023-03-01T09:54:57;2.00;;;1.20;;
78891;SDS011;68280;51.728;5.248;2023-03-01T09:57:30;2.10;;;1.10;;
78891;SDS011;68280;51.728;5.248;2023-03-01T10:00:22;1.60;;;0.90;;
78891;SDS011;68280;51.728;5.248;2023-03-01T10:02:59;1.70;;;1.00;;
78891;SDS011;68280;51.728;5.248;2023-03-01T10:05:40;2.20;;;0.90;;
78891;SDS011;68280;51.728;5.248;2023-03-01T10:08:23;1.40;;;0.80;;
78891;SDS011;68280;51.728;5.248;2023-03-01T10:10:56;3.20;;;1.00;;
78891;SDS011;68280;51.728;5.248;2023-03-01T10:13:28;1.70;;;1.20;;
78891;SDS011;68280;51.728;5.248;2023-03-01T10:16:01;1.40;;;0.90;;
78891;SDS011;68280;51.728;5.248;2023-03-01T10:18:32;1.60;;;0.90;;
78891;SDS011;68280;51.728;5.248;2023-03-01T10:21:02;1.40;;;0.80;;
78891;SDS011;68280;51.728;5.248;2023-03-01T10:23:38;2.00;;;0.90;;
78891;SDS011;68280;51.728;5.248;2023-03-01T10:26:09;1.30;;;0.80;;
78891;SDS011;68280;51.728;5.248;2023-03-01T10:28:54;2.10;;;0.80;;
78891;SDS011;68280;51.728;5.248;2023-03-01T10:31:32;1.30;;;0.80;;
78891;SDS011;68280;51.728;5.248;2023-03-01T10:34:09;1.70;;;1.00;;
78891;SDS011;68280;51.728;5.248;2023-03-01T10:36:39;1.40;;;1.00;;
78891;SDS011;68280;51.728;5.248;2023-03-01T10:39:13;1.70;;;0.80;;
78891;SDS011;68280;51.728;5.248;2023-03-01T10:41:54;1.60;;;1.20;;
78891;SDS011;68280;51.728;5.248;2023-03-01T10:44:38;1.70;;;1.20;;
78891;SDS011;68280;51.728;5.248;2023-03-01T10:47:13;1.60;;;1.00;;
78891;SDS011;68280;51.728;5.248;2023-03-01T10:49:54;1.80;;;1.00;;
78891;SDS011;68280;51.728;5.248;2023-03-01T10:52:28;2.50;;;1.20;;
78891;SDS011;68280;51.728;5.248;2023-03-01T10:54:59;3.20;;;1.10;;
78891;SDS011;68280;51.728;5.248;2023-03-01T10:57:31;2.40;;;0.80;;
78891;SDS011;68280;51.728;5.248;2023-03-01T11:00:09;1.70;;;0.80;;
78891;SDS011;68280;51.728;5.248;2023-03-01T11:02:45;2.40;;;1.10;;
78891;SDS011;68280;51.728;5.248;2023-03-01T11:05:23;1.30;;;0.80;;
78891;SDS011;68280;51.728;5.248;2023-03-01T11:07:53;1.40;;;1.00;;
78891;SDS011;68280;51.728;5.248;2023-03-01T11:10:24;3.80;;;1.00;;
78891;SDS011;68280;51.728;5.248;2023-03-01T11:12:53;2.10;;;1.00;;
78891;SDS011;68280;51.728;5.248;2023-03-01T11:15:32;1.50;;;1.00;;
78891;SDS011;68280;51.728;5.248;2023-03-01T11:18:01;2.80;;;1.10;;
78891;SDS011;68280;51.728;5.248;2023-03-01T11:20:31;1.50;;;0.90;;
78891;SDS011;68280;51.728;5.248;2023-03-01T11:23:01;3.30;;;0.90;;
78891;SDS011;68280;51.728;5.248;2023-03-01T11:25:37;1.80;;;0.90;;
78891;SDS011;68280;51.728;5.248;2023-03-01T11:28:13;2.70;;;1.00;;
78891;SDS011;68280;51.728;5.248;2023-03-01T11:30:46;1.70;;;1.10;;
78891;SDS011;68280;51.728;5.248;2023-03-01T11:33:20;2.20;;;0.90;;
78891;SDS011;68280;51.728;5.248;2023-03-01T11:36:01;2.50;;;0.80;;
78891;SDS011;68280;51.728;5.248;2023-03-01T11:38:34;4.70;;;1.50;;
78891;SDS011;68280;51.728;5.248;2023-03-01T11:41:06;1.60;;;0.90;;
78891;SDS011;68280;51.728;5.248;2023-03-01T11:43:43;1.40;;;0.90;;
78891;SDS011;68280;51.728;5.248;2023-03-01T11:49:07;1.80;;;0.80;;
78891;SDS011;68280;51.728;5.248;2023-03-01T11:51:50;1.30;;;0.80;;
78891;SDS011;68280;51.728;5.248;2023-03-01T11:54:30;1.80;;;1.10;;
78891;SDS011;68280;51.728;5.248;2023-03-01T11:57:10;2.40;;;0.90;;
78891;SDS011;68280;51.728;5.248;2023-03-01T11:59:51;1.90;;;1.20;;
78891;SDS011;68280;51.728;5.248;2023-03-01T12:02:43;1.80;;;1.00;;
78891;SDS011;68280;51.728;5.248;2023-03-01T12:08:35;1.60;;;0.90;;
78891;SDS011;68280;51.728;5.248;2023-03-01T12:11:10;2.60;;;0.90;;
78891;SDS011;68280;51.728;5.248;2023-03-01T12:13:54;2.30;;;1.10;;
78891;SDS011;68280;51.728;5.248;2023-03-01T12:19:33;2.00;;;1.10;;
78891;SDS011;68280;51.728;5.248;2023-03-01T12:22:16;1.40;;;0.90;;
78891;SDS011;68280;51.728;5.248;2023-03-01T12:25:10;1.30;;;0.80;;
78891;SDS011;68280;51.728;5.248;2023-03-01T12:27:50;1.50;;;1.00;;
78891;SDS011;68280;51.728;5.248;2023-03-01T12:30:45;2.30;;;0.80;;
78891;SDS011;68280;51.728;5.248;2023-03-01T12:33:29;1.50;;;1.00;;
78891;SDS011;68280;51.728;5.248;2023-03-01T12:36:12;1.80;;;0.90;;
78891;SDS011;68280;51.728;5.248;2023-03-01T12:38:55;2.30;;;1.00;;
78891;SDS011;68280;51.728;5.248;2023-03-01T12:41:36;1.90;;;1.10;;
78891;SDS011;68280;51.728;5.248;2023-03-01T12:44:23;1.70;;;1.10;;
78891;SDS011;68280;51.728;5.248;2023-03-01T12:47:14;1.80;;;0.80;;
78891;SDS011;68280;51.728;5.248;2023-03-01T12:49:54;1.60;;;1.10;;
78891;SDS011;68280;51.728;5.248;2023-03-01T12:52:27;1.40;;;0.80;;
78891;SDS011;68280;51.728;5.248;2023-03-01T12:55:01;2.70;;;1.10;;
78891;SDS011;68280;51.728;5.248;2023-03-01T12:57:36;2.10;;;0.90;;
78891;SDS011;68280;51.728;5.248;2023-03-01T13:00:15;2.10;;;0.80;;
78891;SDS011;68280;51.728;5.248;2023-03-01T13:02:54;2.20;;;1.30;;
78891;SDS011;68280;51.728;5.248;2023-03-01T13:05:31;1.60;;;1.10;;
78891;SDS011;68280;51.728;5.248;2023-03-01T13:08:07;1.80;;;0.80;;
78891;SDS011;68280;51.728;5.248;2023-03-01T13:10:45;1.70;;;0.90;;
78891;SDS011;68280;51.728;5.248;2023-03-01T13:13:20;1.70;;;0.90;;
78891;SDS011;68280;51.728;5.248;2023-03-01T13:15:50;1.60;;;0.90;;
78891;SDS011;68280;51.728;5.248;2023-03-01T13:18:29;2.30;;;1.20;;
78891;SDS011;68280;51.728;5.248;2023-03-01T13:20:59;2.90;;;1.20;;
78891;SDS011;68280;51.728;5.248;2023-03-01T13:23:30;1.30;;;0.90;;
78891;SDS011;68280;51.728;5.248;2023-03-01T13:26:10;1.90;;;0.90;;
78891;SDS011;68280;51.728;5.248;2023-03-01T13:28:50;1.70;;;0.90;;
78891;SDS011;68280;51.728;5.248;2023-03-01T13:34:03;2.20;;;0.90;;
78891;SDS011;68280;51.728;5.248;2023-03-01T13:36:53;2.50;;;1.00;;
78891;SDS011;68280;51.728;5.248;2023-03-01T13:39:39;1.90;;;0.80;;
78891;SDS011;68280;51.728;5.248;2023-03-01T13:45:15;2.50;;;1.10;;
78891;SDS011;68280;51.728;5.248;2023-03-01T13:47:48;2.80;;;0.90;;
78891;SDS011;68280;51.728;5.248;2023-03-01T13:50:21;1.40;;;1.00;;
78891;SDS011;68280;51.728;5.248;2023-03-01T13:52:53;1.50;;;0.90;;
78891;SDS011;68280;51.728;5.248;2023-03-01T13:55:27;2.20;;;0.90;;
78891;SDS011;68280;51.728;5.248;2023-03-01T13:58:04;2.20;;;1.00;;
78891;SDS011;68280;51.728;5.248;2023-03-01T14:00:47;1.80;;;1.10;;
78891;SDS011;68280;51.728;5.248;2023-03-01T14:03:21;1.90;;;1.00;;
78891;SDS011;68280;51.728;5.248;2023-03-01T14:06:00;1.70;;;1.00;;
78891;SDS011;68280;51.728;5.248;2023-03-01T14:08:32;3.10;;;1.10;;
78891;SDS011;68280;51.728;5.248;2023-03-01T14:11:09;3.00;;;1.10;;
78891;SDS011;68280;51.728;5.248;2023-03-01T14:17:00;1.30;;;0.90;;
78891;SDS011;68280;51.728;5.248;2023-03-01T14:19:42;2.30;;;0.80;;
78891;SDS011;68280;51.728;5.248;2023-03-01T14:22:15;2.80;;;1.30;;
78891;SDS011;68280;51.728;5.248;2023-03-01T14:24:49;2.20;;;1.20;;
78891;SDS011;68280;51.728;5.248;2023-03-01T14:27:19;1.50;;;1.00;;
78891;SDS011;68280;51.728;5.248;2023-03-01T14:29:55;1.70;;;1.30;;
78891;SDS011;68280;51.728;5.248;2023-03-01T14:32:25;1.70;;;1.00;;
78891;SDS011;68280;51.728;5.248;2023-03-01T14:34:55;2.20;;;0.80;;
78891;SDS011;68280;51.728;5.248;2023-03-01T14:37:26;1.80;;;0.90;;
78891;SDS011;68280;51.728;5.248;2023-03-01T14:42:25;2.00;;;1.10;;
78891;SDS011;68280;51.728;5.248;2023-03-01T14:44:57;1.60;;;1.00;;
78891;SDS011;68280;51.728;5.248;2023-03-01T14:47:28;2.30;;;1.00;;
78891;SDS011;68280;51.728;5.248;2023-03-01T14:49:59;2.70;;;1.00;;
78891;SDS011;68280;51.728;5.248;2023-03-01T14:52:35;2.60;;;1.00;;
78891;SDS011;68280;51.728;5.248;2023-03-01T14:55:07;3.20;;;0.90;;
78891;SDS011;68280;51.728;5.248;2023-03-01T14:57:43;2.40;;;1.20;;
78891;SDS011;68280;51.728;5.248;2023-03-01T15:02:44;1.50;;;0.90;;
78891;SDS011;68280;51.728;5.248;2023-03-01T15:05:15;1.60;;;0.90;;
78891;SDS011;68280;51.728;5.248;2023-03-01T15:07:45;2.00;;;1.00;;
78891;SDS011;68280;51.728;5.248;2023-03-01T15:10:17;2.40;;;1.00;;
78891;SDS011;68280;51.728;5.248;2023-03-01T15:12:48;3.60;;;1.10;;
78891;SDS011;68280;51.728;5.248;2023-03-01T15:15:36;2.00;;;0.90;;
78891;SDS011;68280;51.728;5.248;2023-03-01T15:18:12;2.20;;;0.90;;
78891;SDS011;68280;51.728;5.248;2023-03-01T15:20:44;2.70;;;1.00;;
78891;SDS011;68280;51.728;5.248;2023-03-01T15:23:18;2.00;;;1.00;;
78891;SDS011;68280;51.728;5.248;2023-03-01T15:25:48;2.60;;;0.80;;
78891;SDS011;68280;51.728;5.248;2023-03-01T15:28:19;3.00;;;0.80;;
78891;SDS011;68280;51.728;5.248;2023-03-01T15:30:53;2.90;;;1.10;;
78891;SDS011;68280;51.728;5.248;2023-03-01T15:33:31;1.90;;;1.00;;
78891;SDS011;68280;51.728;5.248;2023-03-01T15:36:02;1.90;;;0.90;;
78891;SDS011;68280;51.728;5.248;2023-03-01T15:38:53;1.50;;;0.90;;
78891;SDS011;68280;51.728;5.248;2023-03-01T15:46:54;1.20;;;0.70;;
78891;SDS011;68280;51.728;5.248;2023-03-01T15:49:26;2.70;;;1.50;;
78891;SDS011;68280;51.728;5.248;2023-03-01T15:52:01;1.60;;;0.90;;
78891;SDS011;68280;51.728;5.248;2023-03-01T15:54:31;3.50;;;1.10;;
78891;SDS011;68280;51.728;5.248;2023-03-01T15:57:01;2.50;;;1.10;;
78891;SDS011;68280;51.728;5.248;2023-03-01T15:59:29;1.80;;;0.80;;